Northwich, United Kingdom
Current Conditions -  °F | °C
As of 8:50 AM on Wednesday 28 Jan 2015 (Local Time) from EGCC Reporting Station
Light Rain Light Rain  
Wind Chill: 29°   Ceiling: 2400
Heat Index: 41°   Visibility: 3mi
Dew Point: 37°   Wind: 37mph
Humidity: 87%   Direction: 280°W
Pressure: 29.44"   Gusts: 53mph
Location:  53.26°N, 2.52°W
Report Text: EGCC 280850Z 28032G46KT 220V300 5000 R23L/1100 -RA SCT013CB SCT018 BKN024 05/03 Q0997 RERA TEMPO SHRA
Loading
Personal Weather Stations






























Interactive Weather Map New forecast layout! Learn more

10-Day Weather Forecast

Advertisements
Track Severe Weather on mobile